EHRDEHEH

Guest
Details From EHRD - Rotterdam
To EHEH - Eindhoven
Flight Number -
Tags Generated
Created
Modified
Stats Distance 46 nm / 86 km
Max Altitude 0 ft / 0 m
Waypoints 2
Social Downloads 13
Likes 0
Share VATSIM

Download

Looking for another format? Having issues loading an existing format? Contact us
Advertisement - Login to hide

Notes

Generated

Route

EHRD EHEH

ID Type Via Altitude Latitude Longitude Leg Dist Tot Dist Heading (true) Name
O EHRD APT - 0 ft / 0 m 51.95209˚ 4.42824˚ - 0 nm - -
O EHEH APT - 0 ft / 0 m 51.43909˚ 5.36214˚ 46 nm 46 nm 131° / 132° -

Altitude Profile

Advertisement - Login to hide

EHRD

Details ICAO EHRD (RTM)
Name Rotterdam The Hague
Region Netherlands
Timezone Europe/Amsterdam (UTC+2.0)
Stats Elevation -15 ft / -5 m (AMSL)
Location 51.957468° 4.441662°
Runways 1
Magnetic Variation 1.110° E

METAR

EHRD 250155Z AUTO 08006KT 4500 BR NSC 16/15 Q1016 NOSIG

Decode

TAF

TAF EHRD 241652Z 2418/2524 08007KT CAVOK PROB30 TEMPO 2418/2422 09015G25KT 4000 SHRA TSRA SCT040CB PROB30 TEMPO 2422/2511 6000 SHRA RA BKN040 SCT060CB PROB30 2502/2506 5000 BR SCT006 PROB30 TEMPO 2511/2519 VRB15G25KT 4000 SHRA TSRA SCT030CB

Decode

Departure Runways

ID Width Length Bearing (true) Bearing (mag) Surface Threshold Offset Overrun Length
06 148 ft / 45 m 7,201 ft / 2,195 m 56.93° 55.82° Asphalt 656 ft / 200 m 0 ft / 0 m
24 148 ft / 45 m 7,201 ft / 2,195 m 236.95° 235.84° Asphalt 656 ft / 200 m 0 ft / 0 m

EHEH

Details ICAO EHEH (EIN)
Name Eindhoven
Region Netherlands
Timezone Europe/Amsterdam (UTC+2.0)
Stats Elevation 74 ft / 23 m (AMSL)
Location 51.450133° 5.374513°
Runways 1
Magnetic Variation 1.433° E

METAR

EHEH 250208Z AUTO 10004KT 2000 BR NCD 16/15 Q1016 YLO

Decode

TAF

TAF AMD EHEH 250041Z 2500/2606 10003KT 3000 BR BKN010 BECMG 2500/2503 1500 BR NSC PROB40 2500/2506 0200 FG OVC000 BECMG 2506/2508 9999 NSW NSC PROB30 TEMPO 2514/2519 VRB15G25KT 2000 +SHRA TSRAGR SCT012 BKN040CB BECMG 2602/2605 3500 BR

Decode

Destination Runways

ID Width Length Bearing (true) Bearing (mag) Surface Threshold Offset Overrun Length
03 148 ft / 45 m 9,832 ft / 2,997 m 34.92° 33.49° Asphalt 821 ft / 250 m 0 ft / 0 m
21 148 ft / 45 m 9,832 ft / 2,997 m 214.94° 213.51° Asphalt 821 ft / 250 m 0 ft / 0 m

Approach Navaids

Runway Type Ident Frequency Range Bearing (true) Bearing (mag) Slope Elevation
03 Localiser EHZ 109.75 MHz 18 nm / 33 km 34.95° 33.52° - 74 ft / 23 m (AMSL)
03 Glidescope EHZ 109.75 MHz 15 nm / 28 km 34.95° 33.52° 3.00° 74 ft / 23 m (AMSL)
03 DME EHZ 109.75 MHz 18 nm / 33 km - - - 74 ft / 23 m (AMSL)
21 Localiser EHO 109.75 MHz 18 nm / 33 km 214.92° 213.49° - 74 ft / 23 m (AMSL)
21 Glidescope EHO 109.75 MHz 15 nm / 28 km 214.92° 213.49° 3.00° 74 ft / 23 m (AMSL)
21 DME EHO 109.75 MHz 18 nm / 33 km - - - 74 ft / 23 m (AMSL)

Popular Alternatives